Aérodrome :
LOGIN :

S'inscrire | Disclaimer

   EN    FR    IT 

 










Légende :    VFR   VFR Marginal   IFR   IFR Intensif   IFR Très Intensif
Visi : 
Plafond : 
>= 8 km
>= 3000ft
5 à 8 km
1000 à 3000 ft
1500m à 5 km
500 à 1000 ft
800 à 1500m
200 à 500 ft
< 800m
< 200 ft
Symboles :   Orages  Brouillard  Fortes neiges  Fortes précipitations  Vent > 20 kt
SIGMETs :   Divers  Orages  Givrage  Turbulence  Onde Orograph.  Cendres Volcan.






- Altitude de l'aérodrome : 202 ft
- Code IATA : LGW


EGKK - London Gatwick

DERNIER METAR :
  • 140820Z VRB02KT 7000 VCFG FEW016 02/02 Q0992

METARs EXPIRÉS :
  • 140750Z 09003KT 7000 1500SE PRFG FEW016 01/01 Q0992
  • 140720Z 16003KT 8000 BCFG SCT015 02/02 Q0991
  • 140650Z 14004KT 9000 1500W BCFG FEW017 02/02 Q0990
  • 140620Z 16003KT 9000 1500W BCFG FEW018 02/02 Q0990
  • 140550Z 15002KT 9999 4500W VCFG NSC 03/03 Q0990

TAF TAF EGKK
Valide du 14 à 06h jusqu'au 15 à 12h UTC


140500Z 1406/1512 VRB04KT 9999 SCT035
TEMPO 1406/1410 6000 BKN006
PROB30
TEMPO 1406/1409 0400 FG OVC000
PROB40
TEMPO 1411/1422 6000 SHRA BKN012
BECMG 1418/1421 08010KT
TEMPO 1502/1512 7000 -SHRA BKN012



MET'MAP, la Météo Aéronautique d'un coup d'oeil ! - Copyright ORBIFLY Décembre 2007 - Disclaimer

ORBIFLY MET'MAP TEAM :

Programmation & Développement : Alexandra Zaïnal
Conception & Développement : Baudouin d'Aumeries
Co-Programmation & Développement : Marc-Olivier Méhu
Soutien technique & logistique : Manuel Goepfert

Contact : metmap@orbifly.com




SOURCES & CREDITS :

   NOAA